Time;durP1;ratioP1;P1;durP2;ratioP2;P2;SDS_P1;SDS_P2;PMS_P1;PMS_P2;Temp;Humidity;BMP_temperature;BMP_pressure;BME280_temperature;BME280_humidity;BME280_pressure;Samples;Min_cycle;Max_cycle;Signal;HPM_P1;HPM_P2
2023/03/31 00:02:21;;;;;;;13.40;4.40;;;;;;;;;;5101770;28;20047;-85
2023/03/31 00:04:51;;;;;;;6.45;3.25;;;;;;;;;;5120342;28;20106;-85
2023/03/31 00:07:20;;;;;;;9.30;3.50;;;;;;;;;;5119935;28;20028;-85
2023/03/31 00:09:47;;;;;;;7.03;3.50;;;;;;;;;;5119811;28;20034;-85
2023/03/31 00:12:14;;;;;;;7.35;3.00;;;;;;;;;;5119881;28;20073;-85
2023/03/31 00:14:55;;;;;;;6.35;2.58;;;;;;;;;;5120308;28;20032;-85
2023/03/31 00:17:21;;;;;;;9.68;2.60;;;;;;;;;;5120110;28;20032;-86
2023/03/31 00:19:48;;;;;;;8.93;2.80;;;;;;;;;;5119159;28;20031;-84
2023/03/31 00:22:20;;;;;;;7.45;2.58;;;;;;;;;;5101252;28;20032;-85
2023/03/31 00:24:47;;;;;;;7.45;2.90;;;;;;;;;;5101806;28;20055;-85
2023/03/31 00:27:13;;;;;;;5.22;2.00;;;;;;;;;;5101754;28;20390;-85
2023/03/31 00:29:40;;;;;;;7.07;2.45;;;;;;;;;;5119890;28;20020;-85
2023/03/31 00:32:39;;;;;;;8.98;2.40;;;;;;;;;;5119486;28;20413;-85
2023/03/31 00:35:05;;;;;;;7.00;2.40;;;;;;;;;;5119511;28;20053;-85
2023/03/31 00:37:35;;;;;;;6.20;2.60;;;;;;;;;;5101027;28;20040;-85
2023/03/31 00:40:01;;;;;;;5.38;2.20;;;;;;;;;;5119192;28;20027;-85
2023/03/31 00:42:27;;;;;;;8.40;2.42;;;;;;;;;;5119315;28;20040;-85
2023/03/31 00:45:12;;;;;;;6.80;2.20;;;;;;;;;;5100743;28;20043;-85
2023/03/31 00:47:40;;;;;;;6.00;2.17;;;;;;;;;;5119609;28;20016;-85
2023/03/31 00:50:14;;;;;;;5.18;2.15;;;;;;;;;;5119094;28;20040;-84
2023/03/31 00:52:41;;;;;;;9.45;2.80;;;;;;;;;;5119327;28;20039;-85
2023/03/31 00:55:12;;;;;;;5.70;2.20;;;;;;;;;;5100934;28;20036;-85
2023/03/31 00:57:40;;;;;;;6.85;2.50;;;;;;;;;;5119354;28;20043;-85
2023/03/31 01:00:15;;;;;;;6.15;2.40;;;;;;;;;;5119105;28;20051;-85
2023/03/31 01:02:51;;;;;;;6.90;2.55;;;;;;;;;;5100821;28;20082;-85
2023/03/31 01:05:21;;;;;;;8.00;2.28;;;;;;;;;;5101213;28;20039;-85
2023/03/31 01:07:49;;;;;;;7.82;3.03;;;;;;;;;;5133873;27;20015;-86
2023/03/31 01:10:15;;;;;;;4.20;2.13;;;;;;;;;;5121225;27;20126;-85
2023/03/31 01:12:43;;;;;;;7.05;2.60;;;;;;;;;;5121522;27;20068;-85
2023/03/31 01:15:09;;;;;;;15.60;3.30;;;;;;;;;;5110209;27;20103;-85
2023/03/31 01:17:36;;;;;;;5.95;2.63;;;;;;;;;;5097471;28;20436;-85
2023/03/31 01:20:10;;;;;;;9.90;3.58;;;;;;;;;;5097314;28;20077;-85
2023/03/31 01:22:58;;;;;;;7.65;2.83;;;;;;;;;;5098092;28;20032;-85
2023/03/31 01:25:31;;;;;;;9.75;2.83;;;;;;;;;;5098640;28;20136;-85
2023/03/31 01:28:09;;;;;;;5.60;2.50;;;;;;;;;;5098410;28;20024;-85
2023/03/31 01:30:57;;;;;;;9.48;3.42;;;;;;;;;;5098525;28;20099;-85
2023/03/31 01:33:26;;;;;;;7.30;2.53;;;;;;;;;;5097119;28;20031;-85
2023/03/31 01:36:14;;;;;;;4.88;2.67;;;;;;;;;;5097038;28;20152;-85
2023/03/31 01:38:57;;;;;;;5.25;2.33;;;;;;;;;;5098086;28;20051;-86
2023/03/31 01:41:30;;;;;;;9.02;2.90;;;;;;;;;;5096998;28;20032;-86
2023/03/31 01:43:55;;;;;;;;;;;;;;;;;;5098439;28;20031;-86
2023/03/31 01:46:40;;;;;;;8.95;3.47;;;;;;;;;;5098047;28;19999;-86
2023/03/31 01:49:12;;;;;;;7.35;3.53;;;;;;;;;;5097001;28;20074;-85
2023/03/31 01:51:59;;;;;;;7.18;2.97;;;;;;;;;;5097833;28;20406;-85
2023/03/31 01:54:43;;;;;;;5.55;2.75;;;;;;;;;;5097709;28;20038;-85
2023/03/31 01:57:18;;;;;;;8.32;2.78;;;;;;;;;;5098064;28;20016;-85
2023/03/31 01:59:59;;;;;;;6.60;2.75;;;;;;;;;;5096770;28;20036;-85
2023/03/31 02:02:27;;;;;;;10.13;2.75;;;;;;;;;;5097560;28;20478;-85
2023/03/31 02:04:57;;;;;;;16.88;3.40;;;;;;;;;;5096944;28;20036;-85
2023/03/31 02:07:27;;;;;;;8.15;3.35;;;;;;;;;;5096452;28;20056;-85
2023/03/31 02:09:57;;;;;;;7.30;3.22;;;;;;;;;;5097628;28;20026;-85
2023/03/31 02:12:24;;;;;;;9.10;2.80;;;;;;;;;;5100569;28;20077;-86
2023/03/31 02:14:52;;;;;;;6.70;2.70;;;;;;;;;;5122220;27;20027;-86
2023/03/31 02:20:22;;;;;;;7.20;2.85;;;;;;;;;;5142967;27;20444;-85
2023/03/31 02:22:53;;;;;;;5.03;2.78;;;;;;;;;;5142838;27;20015;-86
2023/03/31 02:25:21;;;;;;;7.93;3.22;;;;;;;;;;5119894;27;20027;-85
2023/03/31 02:27:51;;;;;;;6.32;2.47;;;;;;;;;;5142895;27;20094;-85
2023/03/31 02:30:17;;;;;;;4.65;3.10;;;;;;;;;;5142757;27;20019;-85
2023/03/31 02:32:45;;;;;;;4.97;2.55;;;;;;;;;;5142785;27;20068;-85
2023/03/31 02:35:16;;;;;;;8.90;2.90;;;;;;;;;;5142392;27;20023;-85
2023/03/31 02:37:43;;;;;;;5.53;3.10;;;;;;;;;;5124603;27;20035;-86
2023/03/31 02:40:16;;;;;;;5.95;2.63;;;;;;;;;;5142400;27;20035;-85
2023/03/31 02:42:42;;;;;;;6.18;2.60;;;;;;;;;;5142490;27;20065;-85
2023/03/31 02:51:26;;;;;;;6.22;2.47;;;;;;;;;;5134851;27;20042;-85
2023/03/31 02:53:58;;;;;;;4.57;2.55;;;;;;;;;;5142056;27;20409;-84
2023/03/31 02:56:24;;;;;;;6.75;2.60;;;;;;;;;;5142013;27;20367;-85
2023/03/31 02:58:53;;;;;;;8.13;2.80;;;;;;;;;;5141995;27;20043;-85
2023/03/31 03:01:29;;;;;;;6.88;3.08;;;;;;;;;;5142033;27;20311;-85
2023/03/31 03:04:08;;;;;;;7.38;2.70;;;;;;;;;;5142120;27;20039;-85
2023/03/31 03:06:53;;;;;;;6.32;2.75;;;;;;;;;;5142145;27;20071;-85
2023/03/31 03:09:32;;;;;;;6.80;2.90;;;;;;;;;;5123608;27;20362;-85
2023/03/31 03:12:05;;;;;;;7.03;2.70;;;;;;;;;;5118204;28;20120;-85
2023/03/31 03:14:31;;;;;;;7.93;4.05;;;;;;;;;;5120881;28;20475;-85
2023/03/31 03:16:59;;;;;;;25.95;8.52;;;;;;;;;;5121270;28;20054;-85
2023/03/31 03:19:25;;;;;;;27.48;13.43;;;;;;;;;;5121378;28;20028;-85
2023/03/31 03:21:51;;;;;;;7.75;3.97;;;;;;;;;;5120858;28;20030;-85
2023/03/31 03:24:18;;;;;;;11.52;5.70;;;;;;;;;;5120899;28;20095;-85
2023/03/31 03:26:44;;;;;;;9.00;7.40;;;;;;;;;;5102953;28;20318;-85
2023/03/31 03:29:14;;;;;;;9.95;3.92;;;;;;;;;;5121092;28;20058;-84
2023/03/31 03:31:43;;;;;;;10.27;3.83;;;;;;;;;;5102492;28;20034;-85
2023/03/31 03:34:09;;;;;;;10.05;3.20;;;;;;;;;;5102268;28;20038;-85
2023/03/31 03:36:36;;;;;;;8.85;3.67;;;;;;;;;;5120550;28;20422;-85
2023/03/31 03:39:03;;;;;;;8.85;4.82;;;;;;;;;;5120434;28;20038;-85
2023/03/31 03:41:30;;;;;;;5.78;3.80;;;;;;;;;;5120416;28;20024;-84
2023/03/31 03:43:56;;;;;;;11.15;3.88;;;;;;;;;;5102525;28;20019;-85
2023/03/31 03:49:44;;;;;;;7.10;3.60;;;;;;;;;;5120415;28;20053;-84
2023/03/31 03:52:10;;;;;;;7.47;4.15;;;;;;;;;;5079443;28;20040;-85
2023/03/31 03:54:36;;;;;;;7.25;3.63;;;;;;;;;;5079905;28;20024;-85
2023/03/31 03:57:02;;;;;;;6.07;3.15;;;;;;;;;;5079727;28;20029;-84
2023/03/31 03:59:28;;;;;;;8.43;3.90;;;;;;;;;;5079937;28;20070;-85
2023/03/31 04:04:58;;;;;;;10.68;5.10;;;;;;;;;;5066258;28;20028;-85
2023/03/31 04:07:24;;;;;;;8.23;4.07;;;;;;;;;;5078949;28;20115;-80
2023/03/31 04:09:50;;;;;;;11.13;4.68;;;;;;;;;;5078596;28;20415;-81
2023/03/31 04:12:16;;;;;;;10.18;4.13;;;;;;;;;;5078549;28;20041;-81
2023/03/31 04:14:42;;;;;;;5.18;3.30;;;;;;;;;;5078741;28;20052;-80
2023/03/31 04:17:09;;;;;;;6.40;3.20;;;;;;;;;;5078364;28;20055;-80
2023/03/31 04:19:37;;;;;;;6.47;3.30;;;;;;;;;;5078932;28;20024;-81
2023/03/31 04:22:03;;;;;;;8.95;3.45;;;;;;;;;;5078566;28;20027;-81
2023/03/31 04:24:31;;;;;;;5.22;3.45;;;;;;;;;;5078796;28;20025;-81
2023/03/31 04:26:58;;;;;;;10.95;3.97;;;;;;;;;;5078765;28;20024;-80
2023/03/31 04:29:25;;;;;;;11.02;4.80;;;;;;;;;;5078366;28;20319;-80
2023/03/31 04:31:58;;;;;;;13.02;5.28;;;;;;;;;;5077365;28;20029;-80
2023/03/31 04:34:34;;;;;;;20.63;8.93;;;;;;;;;;5078015;28;20066;-81
2023/03/31 04:37:01;;;;;;;24.25;9.18;;;;;;;;;;5078646;28;20028;-81
2023/03/31 04:39:33;;;;;;;29.70;11.52;;;;;;;;;;5077964;28;20024;-79
2023/03/31 04:42:00;;;;;;;28.80;13.15;;;;;;;;;;5078295;28;20036;-81
2023/03/31 04:44:26;;;;;;;21.48;9.02;;;;;;;;;;5078330;28;20029;-81
2023/03/31 04:46:52;;;;;;;21.15;8.57;;;;;;;;;;5078155;28;20017;-80
2023/03/31 04:49:19;;;;;;;21.25;8.57;;;;;;;;;;5078041;28;20028;-81
2023/03/31 04:51:45;;;;;;;12.20;6.13;;;;;;;;;;5093619;28;20044;-81
2023/03/31 04:54:11;;;;;;;10.25;5.00;;;;;;;;;;5098228;28;20032;-81
2023/03/31 04:56:37;;;;;;;10.80;4.55;;;;;;;;;;5098226;28;20550;-81
2023/03/31 04:59:03;;;;;;;12.60;5.50;;;;;;;;;;5098156;28;20028;-81
2023/03/31 05:01:31;;;;;;;10.50;4.45;;;;;;;;;;5098064;28;20067;-81
2023/03/31 05:03:58;;;;;;;8.05;3.85;;;;;;;;;;5098144;28;20080;-81
2023/03/31 05:06:24;;;;;;;8.65;3.90;;;;;;;;;;5098268;28;20020;-81
2023/03/31 05:08:50;;;;;;;9.02;4.57;;;;;;;;;;5097858;28;20052;-81
2023/03/31 05:11:16;;;;;;;7.47;4.97;;;;;;;;;;5098226;28;20035;-80
2023/03/31 05:13:42;;;;;;;13.07;5.88;;;;;;;;;;5098013;28;20032;-80
2023/03/31 05:16:09;;;;;;;6.35;4.10;;;;;;;;;;5097522;28;20058;-80
2023/03/31 05:18:36;;;;;;;14.48;5.60;;;;;;;;;;5097929;28;20024;-79
2023/03/31 05:21:09;;;;;;;24.50;9.55;;;;;;;;;;5098129;28;20310;-80
2023/03/31 05:23:35;;;;;;;27.88;11.27;;;;;;;;;;5097685;28;20027;-80
2023/03/31 05:26:01;;;;;;;30.70;13.25;;;;;;;;;;5096501;28;20027;-80
2023/03/31 05:28:27;;;;;;;39.38;13.80;;;;;;;;;;5097632;28;20119;-80
2023/03/31 05:30:53;;;;;;;23.52;11.05;;;;;;;;;;5097617;28;20027;-80
2023/03/31 05:33:19;;;;;;;18.80;9.15;;;;;;;;;;5097678;28;20027;-80
2023/03/31 05:35:45;;;;;;;17.42;8.98;;;;;;;;;;5096924;28;20332;-80
2023/03/31 05:38:11;;;;;;;37.55;19.02;;;;;;;;;;5095269;28;20038;-79
2023/03/31 05:40:37;;;;;;;31.10;16.65;;;;;;;;;;5097155;28;20040;-80
2023/03/31 05:43:03;;;;;;;21.42;9.52;;;;;;;;;;5097225;28;20028;-80
2023/03/31 05:45:29;;;;;;;28.17;13.82;;;;;;;;;;5096745;28;20032;-80
2023/03/31 05:48:14;;;;;;;17.92;9.43;;;;;;;;;;5095691;28;20024;-80
2023/03/31 05:50:41;;;;;;;16.42;7.38;;;;;;;;;;5104483;28;20084;-81
2023/03/31 05:53:08;;;;;;;13.45;8.10;;;;;;;;;;5117492;28;20038;-80
2023/03/31 05:55:35;;;;;;;12.63;7.97;;;;;;;;;;5117901;28;20118;-80
2023/03/31 05:58:01;;;;;;;12.45;7.25;;;;;;;;;;5117584;28;20061;-80
2023/03/31 06:00:27;;;;;;;21.50;6.85;;;;;;;;;;5117562;28;20114;-80
2023/03/31 06:02:54;;;;;;;12.50;5.93;;;;;;;;;;5117310;28;20398;-80
2023/03/31 06:05:21;;;;;;;11.15;6.05;;;;;;;;;;5117401;28;20035;-80
2023/03/31 06:07:48;;;;;;;10.45;5.13;;;;;;;;;;5117350;28;20043;-80
2023/03/31 06:10:14;;;;;;;9.75;4.78;;;;;;;;;;5117388;28;20402;-80
2023/03/31 06:12:40;;;;;;;7.60;4.38;;;;;;;;;;5117430;28;20031;-80
2023/03/31 06:15:07;;;;;;;8.85;4.22;;;;;;;;;;5117538;28;20110;-80
2023/03/31 06:17:33;;;;;;;12.02;6.30;;;;;;;;;;5117374;28;20313;-80
2023/03/31 06:19:59;;;;;;;16.30;10.45;;;;;;;;;;5117429;28;20110;-80
2023/03/31 06:22:25;;;;;;;17.02;10.63;;;;;;;;;;5117559;28;20036;-81
2023/03/31 06:24:51;;;;;;;27.98;15.52;;;;;;;;;;5117497;28;20103;-81
2023/03/31 06:27:17;;;;;;;22.42;12.88;;;;;;;;;;5117483;28;20031;-80
2023/03/31 06:29:43;;;;;;;14.65;8.07;;;;;;;;;;5115964;28;20027;-80
2023/03/31 06:32:10;;;;;;;9.50;5.53;;;;;;;;;;5117048;28;20047;-80
2023/03/31 06:34:36;;;;;;;12.60;4.97;;;;;;;;;;5098904;28;20317;-80
2023/03/31 06:37:02;;;;;;;9.02;3.63;;;;;;;;;;5117241;28;20433;-80
2023/03/31 06:39:28;;;;;;;10.15;3.83;;;;;;;;;;5117279;28;20035;-80
2023/03/31 06:41:54;;;;;;;10.07;4.00;;;;;;;;;;5098754;28;20067;-80
2023/03/31 06:44:22;;;;;;;8.05;3.50;;;;;;;;;;5098798;28;20032;-80
2023/03/31 06:46:48;;;;;;;17.35;6.93;;;;;;;;;;5117380;28;20023;-80
2023/03/31 06:49:14;;;;;;;15.38;6.57;;;;;;;;;;5099078;28;20446;-80
2023/03/31 06:51:40;;;;;;;14.82;5.38;;;;;;;;;;5116939;28;20041;-80
2023/03/31 06:54:06;;;;;;;10.70;5.13;;;;;;;;;;5117216;28;20031;-80
2023/03/31 06:56:32;;;;;;;8.30;3.50;;;;;;;;;;5117281;28;20309;-80
2023/03/31 06:58:58;;;;;;;8.57;3.10;;;;;;;;;;5120863;28;20425;-80
2023/03/31 07:01:24;;;;;;;11.73;4.93;;;;;;;;;;5102905;28;20290;-80
2023/03/31 07:03:51;;;;;;;12.50;5.60;;;;;;;;;;5120859;28;20325;-80
2023/03/31 07:06:17;;;;;;;8.77;4.28;;;;;;;;;;5120804;28;20030;-81
2023/03/31 07:08:43;;;;;;;15.38;4.90;;;;;;;;;;5120682;28;20390;-80
2023/03/31 07:11:11;;;;;;;9.05;3.55;;;;;;;;;;5120791;28;20027;-80
2023/03/31 07:13:37;;;;;;;12.10;3.88;;;;;;;;;;5120519;28;20314;-81
2023/03/31 07:16:05;;;;;;;12.27;4.20;;;;;;;;;;5120621;28;20037;-80
2023/03/31 07:18:33;;;;;;;8.43;3.22;;;;;;;;;;5120427;28;20048;-80
2023/03/31 07:20:59;;;;;;;9.05;3.55;;;;;;;;;;5101984;28;20039;-80
2023/03/31 07:23:26;;;;;;;10.90;4.05;;;;;;;;;;5102159;28;20323;-80
2023/03/31 07:25:52;;;;;;;11.45;4.18;;;;;;;;;;5120225;28;20046;-80
2023/03/31 07:28:18;;;;;;;9.52;3.58;;;;;;;;;;5120310;28;20366;-80
2023/03/31 07:30:44;;;;;;;8.93;3.22;;;;;;;;;;5120282;28;20019;-80
2023/03/31 07:33:10;;;;;;;7.18;3.00;;;;;;;;;;5120113;28;20028;-80
2023/03/31 07:35:37;;;;;;;10.18;3.10;;;;;;;;;;5120197;28;20024;-80
2023/03/31 07:38:03;;;;;;;9.30;2.97;;;;;;;;;;5119995;28;20148;-80
2023/03/31 07:40:29;;;;;;;8.52;3.25;;;;;;;;;;5120051;28;20027;-80
2023/03/31 07:42:56;;;;;;;10.40;3.88;;;;;;;;;;5101656;28;20028;-80
2023/03/31 07:45:24;;;;;;;8.93;2.67;;;;;;;;;;5101996;28;20019;-80
2023/03/31 07:47:50;;;;;;;6.68;3.00;;;;;;;;;;5119838;28;20073;-80
2023/03/31 07:50:16;;;;;;;9.07;2.60;;;;;;;;;;5101293;28;20027;-79
2023/03/31 07:52:43;;;;;;;8.43;2.33;;;;;;;;;;5119907;28;20406;-80
2023/03/31 07:55:09;;;;;;;11.00;2.38;;;;;;;;;;5119845;28;20103;-80
2023/03/31 07:57:36;;;;;;;5.18;2.53;;;;;;;;;;5101863;28;20031;-80
2023/03/31 08:00:07;;;;;;;7.30;3.60;;;;;;;;;;5119689;28;20020;-79
2023/03/31 08:02:33;;;;;;;9.68;3.35;;;;;;;;;;5119485;28;20027;-79
2023/03/31 08:05:00;;;;;;;7.03;2.90;;;;;;;;;;5119847;28;20038;-79
2023/03/31 08:07:29;;;;;;;12.50;3.67;;;;;;;;;;5119478;28;20012;-79
2023/03/31 08:09:56;;;;;;;8.00;3.08;;;;;;;;;;5100533;28;20043;-79
2023/03/31 08:12:22;;;;;;;8.80;3.47;;;;;;;;;;5119452;28;20046;-79
2023/03/31 08:14:48;;;;;;;9.10;3.05;;;;;;;;;;5119206;28;20417;-79
2023/03/31 08:17:14;;;;;;;8.18;3.25;;;;;;;;;;5100412;28;20031;-79
2023/03/31 08:19:41;;;;;;;9.20;2.88;;;;;;;;;;5118943;28;20049;-80
2023/03/31 08:22:07;;;;;;;10.77;3.38;;;;;;;;;;5119203;28;20418;-80
2023/03/31 08:24:33;;;;;;;7.47;3.08;;;;;;;;;;5100556;28;20069;-79
2023/03/31 08:26:59;;;;;;;13.70;3.42;;;;;;;;;;5119155;28;20023;-79
2023/03/31 08:29:25;;;;;;;10.15;3.38;;;;;;;;;;5119174;28;20026;-80
2023/03/31 08:31:51;;;;;;;7.65;3.22;;;;;;;;;;5100934;28;20441;-80
2023/03/31 08:34:17;;;;;;;11.60;3.28;;;;;;;;;;5100931;28;20092;-80
2023/03/31 08:36:44;;;;;;;9.57;3.28;;;;;;;;;;5119222;28;20084;-81
2023/03/31 08:39:10;;;;;;;8.90;3.70;;;;;;;;;;5100770;28;20024;-80
2023/03/31 08:41:39;;;;;;;10.18;3.80;;;;;;;;;;5118900;28;20035;-80
2023/03/31 08:44:13;;;;;;;8.30;2.63;;;;;;;;;;5100781;28;20149;-80
2023/03/31 08:46:40;;;;;;;9.70;3.38;;;;;;;;;;5100764;28;20064;-80
2023/03/31 08:49:07;;;;;;;8.10;2.92;;;;;;;;;;5118729;28;20034;-80
2023/03/31 08:51:37;;;;;;;10.20;2.83;;;;;;;;;;5118130;28;20448;-80
2023/03/31 08:54:06;;;;;;;8.27;3.00;;;;;;;;;;5118619;28;20106;-80
2023/03/31 08:56:38;;;;;;;7.25;2.50;;;;;;;;;;5118627;28;20035;-80
2023/03/31 08:59:05;;;;;;;8.82;2.80;;;;;;;;;;5118654;28;20035;-80
2023/03/31 09:01:40;;;;;;;8.20;2.78;;;;;;;;;;5099692;28;20042;-80
2023/03/31 09:04:12;;;;;;;11.85;2.60;;;;;;;;;;5118490;28;20016;-79
2023/03/31 09:06:57;;;;;;;10.10;3.25;;;;;;;;;;5100030;28;20023;-80
2023/03/31 09:09:42;;;;;;;7.28;3.08;;;;;;;;;;5100231;28;20137;-80
2023/03/31 09:12:14;;;;;;;14.40;3.42;;;;;;;;;;5100291;28;20039;-79
2023/03/31 09:14:44;;;;;;;5.72;2.25;;;;;;;;;;5118253;28;20362;-79
2023/03/31 09:17:18;;;;;;;10.98;2.55;;;;;;;;;;5118248;28;20422;-80
2023/03/31 09:19:48;;;;;;;10.20;2.95;;;;;;;;;;5118248;28;20029;-80
2023/03/31 09:22:19;;;;;;;5.90;2.45;;;;;;;;;;5100053;28;20426;-80
2023/03/31 09:24:48;;;;;;;5.97;2.53;;;;;;;;;;5100195;28;20402;-81
2023/03/31 09:27:14;;;;;;;5.40;2.17;;;;;;;;;;5100113;28;20034;-81
2023/03/31 09:30:01;;;;;;;6.05;2.40;;;;;;;;;;5118001;28;20023;-80
2023/03/31 09:32:31;;;;;;;7.88;2.63;;;;;;;;;;5118113;28;20450;-80
2023/03/31 09:35:00;;;;;;;11.27;2.80;;;;;;;;;;5117838;28;20031;-81
2023/03/31 09:37:27;;;;;;;7.43;2.28;;;;;;;;;;5117721;28;20425;-80
2023/03/31 09:39:53;;;;;;;6.93;2.22;;;;;;;;;;5117629;28;20040;-81
2023/03/31 09:42:20;;;;;;;7.45;2.13;;;;;;;;;;5099867;28;20059;-80
2023/03/31 09:44:48;;;;;;;5.88;2.33;;;;;;;;;;5117910;28;20623;-81
2023/03/31 09:47:37;;;;;;;6.53;2.83;;;;;;;;;;5118062;28;20031;-81
2023/03/31 09:50:05;;;;;;;11.40;3.75;;;;;;;;;;5117467;28;20448;-81
2023/03/31 09:52:31;;;;;;;8.35;3.03;;;;;;;;;;5099409;28;20035;-80
2023/03/31 09:55:01;;;;;;;6.93;2.60;;;;;;;;;;5117898;28;20330;-81
2023/03/31 09:57:29;;;;;;;5.43;2.38;;;;;;;;;;5117564;28;20417;-80
2023/03/31 10:00:15;;;;;;;6.93;2.38;;;;;;;;;;5117672;28;20074;-80
2023/03/31 10:03:02;;;;;;;14.30;5.85;;;;;;;;;;5099093;28;20040;-81
2023/03/31 10:05:28;;;;;;;12.23;4.85;;;;;;;;;;5099414;28;20135;-80
2023/03/31 10:08:13;;;;;;;12.00;3.60;;;;;;;;;;5099051;28;20059;-80
2023/03/31 10:10:43;;;;;;;8.02;2.50;;;;;;;;;;5117385;28;20024;-80
2023/03/31 10:13:10;;;;;;;6.00;2.30;;;;;;;;;;5117679;28;20028;-80
2023/03/31 10:15:42;;;;;;;6.20;2.00;;;;;;;;;;5117740;28;20020;-80
2023/03/31 10:18:13;;;;;;;9.82;2.80;;;;;;;;;;5117358;28;20031;-80
2023/03/31 10:20:42;;;;;;;9.25;2.55;;;;;;;;;;5098945;28;20046;-80
2023/03/31 10:23:18;;;;;;;9.63;2.25;;;;;;;;;;5117102;28;20035;-81
2023/03/31 10:25:46;;;;;;;4.60;1.75;;;;;;;;;;5117496;28;20047;-81
2023/03/31 10:28:17;;;;;;;5.05;1.58;;;;;;;;;;5117343;28;20489;-80
2023/03/31 10:30:48;;;;;;;6.40;2.05;;;;;;;;;;5117454;28;20024;-81
2023/03/31 10:33:16;;;;;;;6.27;1.97;;;;;;;;;;5119772;28;20072;-81
2023/03/31 10:35:43;;;;;;;5.18;1.73;;;;;;;;;;5103184;28;20252;-80
2023/03/31 10:38:14;;;;;;;5.55;1.95;;;;;;;;;;5120617;28;20065;-80
2023/03/31 10:40:42;;;;;;;8.60;2.30;;;;;;;;;;5121205;28;20055;-80
2023/03/31 10:43:19;;;;;;;7.78;3.10;;;;;;;;;;5121153;28;20036;-80
2023/03/31 10:45:50;;;;;;;9.48;3.00;;;;;;;;;;5121209;28;20380;-80
2023/03/31 10:48:23;;;;;;;6.00;2.13;;;;;;;;;;5121149;28;20026;-80
2023/03/31 10:50:49;;;;;;;4.70;1.80;;;;;;;;;;5120711;28;20425;-80
2023/03/31 10:53:16;;;;;;;5.32;2.30;;;;;;;;;;5121237;28;20031;-80
2023/03/31 10:55:57;;;;;;;3.85;1.75;;;;;;;;;;5102934;28;20028;-79
2023/03/31 10:58:36;;;;;;;5.28;2.53;;;;;;;;;;5102725;28;20426;-79
2023/03/31 11:01:21;;;;;;;6.35;2.00;;;;;;;;;;5102921;28;20122;-80
2023/03/31 11:03:50;;;;;;;8.52;2.72;;;;;;;;;;5121041;28;20035;-80
2023/03/31 11:06:34;;;;;;;9.32;2.58;;;;;;;;;;5120811;28;20432;-80
2023/03/31 11:09:03;;;;;;;6.10;1.90;;;;;;;;;;5102596;28;20019;-79
2023/03/31 11:11:50;;;;;;;9.70;4.78;;;;;;;;;;5102653;28;20119;-80
2023/03/31 11:14:38;;;;;;;7.05;4.18;;;;;;;;;;5120521;28;20027;-79
2023/03/31 11:17:16;;;;;;;6.15;3.03;;;;;;;;;;5102514;28;20047;-79
2023/03/31 11:19:42;;;;;;;5.18;2.13;;;;;;;;;;5120706;28;20061;-80
2023/03/31 11:22:18;;;;;;;6.35;2.38;;;;;;;;;;5120418;28;20042;-80
2023/03/31 11:24:44;;;;;;;5.38;2.35;;;;;;;;;;5120527;28;20065;-80
2023/03/31 11:27:13;;;;;;;6.35;1.80;;;;;;;;;;5120591;28;20317;-80
2023/03/31 11:29:43;;;;;;;3.60;1.90;;;;;;;;;;5120449;28;20023;-79
2023/03/31 11:32:22;;;;;;;5.13;2.35;;;;;;;;;;5101587;28;20032;-80
2023/03/31 11:34:54;;;;;;;4.57;2.08;;;;;;;;;;5120407;28;20092;-80
2023/03/31 11:37:30;;;;;;;4.70;2.10;;;;;;;;;;5102211;28;20114;-80
2023/03/31 11:40:11;;;;;;;7.15;2.20;;;;;;;;;;5119855;28;20051;-80
2023/03/31 11:42:42;;;;;;;7.20;2.13;;;;;;;;;;5101937;28;20062;-80
2023/03/31 11:45:14;;;;;;;5.80;1.83;;;;;;;;;;5118310;28;20036;-79
2023/03/31 11:47:43;;;;;;;5.15;2.40;;;;;;;;;;5119509;28;20015;-79
2023/03/31 11:50:11;;;;;;;4.75;1.88;;;;;;;;;;5099497;28;20330;-79
2023/03/31 11:52:39;;;;;;;6.88;2.20;;;;;;;;;;5099516;28;20051;-79
2023/03/31 11:55:08;;;;;;;6.03;1.98;;;;;;;;;;5099537;28;20108;-79
2023/03/31 11:57:53;;;;;;;7.43;2.60;;;;;;;;;;5099308;28;20032;-80
2023/03/31 12:00:21;;;;;;;6.93;2.17;;;;;;;;;;5099517;28;20027;-80
2023/03/31 12:03:01;;;;;;;4.75;2.50;;;;;;;;;;5099344;28;20410;-80
2023/03/31 12:05:28;;;;;;;8.20;2.75;;;;;;;;;;5099353;28;20042;-80
2023/03/31 12:08:12;;;;;;;6.20;2.72;;;;;;;;;;5099341;28;20023;-80
2023/03/31 12:10:40;;;;;;;6.10;2.30;;;;;;;;;;5081358;28;20051;-80
2023/03/31 12:13:28;;;;;;;6.20;2.22;;;;;;;;;;5099051;28;20468;-80
2023/03/31 12:16:01;;;;;;;9.65;3.72;;;;;;;;;;5098844;28;20032;-80
2023/03/31 12:18:34;;;;;;;6.82;2.72;;;;;;;;;;5099017;28;20087;-80
2023/03/31 12:21:02;;;;;;;5.82;2.67;;;;;;;;;;5101063;28;20653;-80
2023/03/31 12:23:30;;;;;;;8.32;2.17;;;;;;;;;;5100906;28;20036;-91
2023/03/31 12:26:17;;;;;;;14.02;2.45;;;;;;;;;;5120049;28;20019;-84
2023/03/31 12:28:43;;;;;;;5.30;1.75;;;;;;;;;;5119809;28;20075;-86
2023/03/31 12:31:12;;;;;;;11.15;2.90;;;;;;;;;;5119536;28;20030;-84
2023/03/31 12:33:41;;;;;;;7.95;2.00;;;;;;;;;;5100929;28;20070;-85
2023/03/31 12:36:17;;;;;;;6.18;2.08;;;;;;;;;;5100815;28;20440;-85
2023/03/31 12:38:55;;;;;;;8.73;2.28;;;;;;;;;;5119532;28;20106;-85
2023/03/31 12:41:21;;;;;;;4.88;1.63;;;;;;;;;;5098491;28;20486;-84
2023/03/31 12:43:51;;;;;;;7.85;1.85;;;;;;;;;;5098373;28;20032;-84
2023/03/31 12:46:36;;;;;;;6.65;2.03;;;;;;;;;;5098065;28;20119;-85
2023/03/31 12:49:10;;;;;;;12.00;2.55;;;;;;;;;;5099339;28;20031;-85
2023/03/31 12:51:46;;;;;;;8.55;1.88;;;;;;;;;;5097835;28;20046;-85
2023/03/31 12:54:24;;;;;;;5.25;1.70;;;;;;;;;;5098837;28;20042;-85
2023/03/31 12:57:02;;;;;;;6.00;2.00;;;;;;;;;;5098460;28;20024;-85
2023/03/31 12:59:32;;;;;;;5.45;1.80;;;;;;;;;;5099034;28;20091;-85
2023/03/31 13:02:11;;;;;;;6.82;2.10;;;;;;;;;;5097658;28;20115;-84
2023/03/31 13:04:37;;;;;;;8.32;3.08;;;;;;;;;;5098612;28;20021;-84
2023/03/31 13:07:05;;;;;;;5.53;1.77;;;;;;;;;;5097502;28;20036;-85
2023/03/31 13:09:31;;;;;;;5.53;1.90;;;;;;;;;;5098517;28;20044;-85
2023/03/31 13:11:57;;;;;;;5.63;1.77;;;;;;;;;;5098624;28;20028;-84
2023/03/31 13:14:43;;;;;;;4.32;1.70;;;;;;;;;;5097496;28;20024;-85
2023/03/31 13:17:23;;;;;;;6.65;2.20;;;;;;;;;;5097271;28;20042;-86
2023/03/31 13:19:50;;;;;;;6.97;2.10;;;;;;;;;;5098334;28;20051;-85
2023/03/31 13:22:31;;;;;;;6.07;2.25;;;;;;;;;;5098493;28;20032;-85
2023/03/31 13:25:26;;;;;;;9.95;2.30;;;;;;;;;;5097318;28;20111;-85
2023/03/31 13:27:52;;;;;;;5.78;1.85;;;;;;;;;;5098315;28;20024;-85
2023/03/31 13:30:36;;;;;;;4.50;1.88;;;;;;;;;;5098452;28;20023;-85
2023/03/31 13:33:41;;;;;;;3.38;2.05;;;;;;;;;;5097269;28;20375;-85
2023/03/31 13:36:26;;;;;;;7.82;2.90;;;;;;;;;;5036298;28;20025;-85
2023/03/31 13:39:04;;;;;;;5.85;1.38;;;;;;;;;;5019692;28;20324;-84
2023/03/31 13:41:36;;;;;;;8.60;2.20;;;;;;;;;;5019716;28;20462;-85
2023/03/31 13:44:15;;;;;;;5.93;2.25;;;;;;;;;;5019157;28;20108;-85
2023/03/31 13:47:07;;;;;;;7.80;2.50;;;;;;;;;;5019080;28;20036;-85
2023/03/31 13:49:33;;;;;;;;;;;;;;;;;;5036502;28;20108;-85
2023/03/31 13:52:02;;;;;;;12.27;2.28;;;;;;;;;;5035910;28;19948;-85
2023/03/31 13:54:54;;;;;;;6.70;2.58;;;;;;;;;;5036016;28;20080;-85
2023/03/31 13:57:38;;;;;;;6.55;2.65;;;;;;;;;;4957767;28;20070;-84
2023/03/31 14:00:10;;;;;;;9.00;2.72;;;;;;;;;;4941773;29;20042;-86
2023/03/31 14:02:55;;;;;;;12.63;4.53;;;;;;;;;;4957907;29;20070;-86
2023/03/31 14:05:21;;;;;;;6.18;2.70;;;;;;;;;;4957992;29;20032;-86
2023/03/31 14:07:50;;;;;;;7.13;2.50;;;;;;;;;;5008572;28;20061;-85
2023/03/31 14:10:23;;;;;;;7.68;2.30;;;;;;;;;;5016121;28;20038;-86
2023/03/31 14:12:51;;;;;;;7.43;2.50;;;;;;;;;;4999586;28;20034;-84
2023/03/31 14:15:20;;;;;;;17.45;5.25;;;;;;;;;;5015961;28;20121;-85
2023/03/31 14:17:46;;;;;;;8.60;3.53;;;;;;;;;;5016197;28;20026;-86
2023/03/31 14:20:24;;;;;;;9.43;2.95;;;;;;;;;;4999567;28;20068;-86
2023/03/31 14:23:05;;;;;;;5.50;3.20;;;;;;;;;;4999645;28;20022;-86
2023/03/31 14:25:44;;;;;;;8.50;2.75;;;;;;;;;;5016011;28;20117;-85
2023/03/31 14:28:19;;;;;;;5.85;2.60;;;;;;;;;;5015994;28;20069;-86
2023/03/31 14:30:51;;;;;;;7.70;3.40;;;;;;;;;;5015907;28;20124;-86
2023/03/31 14:33:41;;;;;;;14.90;7.28;;;;;;;;;;5012620;28;20036;-86
2023/03/31 14:36:27;;;;;;;9.07;4.00;;;;;;;;;;5079716;28;20117;-86
2023/03/31 14:38:54;;;;;;;10.25;3.22;;;;;;;;;;5097466;28;20028;-86
2023/03/31 14:41:28;;;;;;;7.55;2.67;;;;;;;;;;5097742;28;20025;-86
2023/03/31 14:43:54;;;;;;;11.65;5.03;;;;;;;;;;5079541;28;20024;-86
2023/03/31 14:46:21;;;;;;;6.72;2.90;;;;;;;;;;5097475;28;20020;-86
2023/03/31 14:48:48;;;;;;;6.90;2.50;;;;;;;;;;5097836;28;20016;-86
2023/03/31 14:51:17;;;;;;;9.48;3.20;;;;;;;;;;5063990;28;20415;-87
2023/03/31 14:53:43;;;;;;;9.82;4.68;;;;;;;;;;5056251;28;20108;-86
2023/03/31 14:56:14;;;;;;;11.20;4.18;;;;;;;;;;5057425;28;20029;-84
2023/03/31 14:58:42;;;;;;;12.68;5.38;;;;;;;;;;5057416;28;20025;-86
2023/03/31 15:01:09;;;;;;;7.25;2.78;;;;;;;;;;5057399;28;20029;-85
2023/03/31 15:09:48;;;;;;;13.70;6.57;;;;;;;;;;5057189;28;20457;-86
2023/03/31 15:12:15;;;;;;;14.05;5.38;;;;;;;;;;5057069;28;20036;-86
2023/03/31 15:15:07;;;;;;;11.23;4.50;;;;;;;;;;5056013;28;20036;-86
2023/03/31 15:17:38;;;;;;;8.20;3.72;;;;;;;;;;5054029;28;20033;-86
2023/03/31 15:20:24;;;;;;;7.28;4.47;;;;;;;;;;5059463;28;20017;-86
2023/03/31 15:22:50;;;;;;;13.55;4.03;;;;;;;;;;5060129;28;20335;-87